createdAt,value
2019-01-27T00:01:20.471Z,79.52
2019-01-27T00:03:52.584Z,79.22
2019-01-27T00:06:25.865Z,79.00
2019-01-27T00:09:05.875Z,78.77
2019-01-27T00:11:39.505Z,78.84
2019-01-27T00:14:18.113Z,78.76
2019-01-27T00:16:50.194Z,78.83
2019-01-27T00:19:30.160Z,78.86
2019-01-27T00:22:10.513Z,78.78
2019-01-27T00:24:44.143Z,78.83
2019-01-27T00:27:16.215Z,79.08
2019-01-27T00:29:48.280Z,79.38
2019-01-27T00:32:20.244Z,79.51
2019-01-27T00:34:52.235Z,79.51
2019-01-27T00:37:24.341Z,79.69
2019-01-27T00:39:56.387Z,79.94
2019-01-27T00:42:28.445Z,80.07
2019-01-27T00:45:00.457Z,80.10
2019-01-27T00:47:32.707Z,80.14
2019-01-27T00:50:05.362Z,80.01
2019-01-27T00:52:37.448Z,79.99
2019-01-27T00:55:12.831Z,80.14
2019-01-27T00:57:45.031Z,80.22
2019-01-27T01:00:19.790Z,80.37
2019-01-27T01:02:51.955Z,80.33
2019-01-27T01:05:24.078Z,80.27
2019-01-27T01:07:56.196Z,80.36
2019-01-27T01:10:28.337Z,80.34
2019-01-27T01:13:00.360Z,80.30
2019-01-27T01:15:32.461Z,80.19
2019-01-27T01:18:04.991Z,80.10
2019-01-27T01:20:36.953Z,80.09
2019-01-27T01:23:09.509Z,80.07
2019-01-27T01:25:41.496Z,80.08
2019-01-27T01:28:13.610Z,80.01
2019-01-27T01:30:45.644Z,79.98
2019-01-27T01:33:17.751Z,79.95
2019-01-27T01:35:52.814Z,79.85
2019-01-27T01:38:24.989Z,79.90
2019-01-27T01:40:56.995Z,79.77
2019-01-27T01:43:29.028Z,79.53
2019-01-27T01:46:01.079Z,79.62
2019-01-27T01:48:33.159Z,79.67
2019-01-27T01:51:05.175Z,79.79
2019-01-27T01:53:37.301Z,79.95
2019-01-27T01:56:09.622Z,80.05
2019-01-27T01:58:41.648Z,80.02
2019-01-27T02:01:13.800Z,79.93
2019-01-27T02:03:46.164Z,79.92
2019-01-27T02:06:20.854Z,79.88
2019-01-27T02:08:52.997Z,80.02
2019-01-27T02:11:25.112Z,80.14
2019-01-27T02:13:57.288Z,80.11
2019-01-27T02:16:29.310Z,80.13
2019-01-27T02:19:01.398Z,80.16
2019-01-27T02:21:34.669Z,80.16
2019-01-27T02:24:07.166Z,80.20
2019-01-27T02:26:39.314Z,80.29
2019-01-27T02:29:12.895Z,80.30
2019-01-27T02:31:44.874Z,80.32
2019-01-27T02:34:16.896Z,80.46
2019-01-27T02:36:48.937Z,80.46
2019-01-27T02:39:21.275Z,80.50
2019-01-27T02:41:54.467Z,80.65
2019-01-27T02:44:26.476Z,80.73
2019-01-27T02:46:58.435Z,80.72
2019-01-27T02:49:30.646Z,80.71
2019-01-27T02:52:04.668Z,80.75
2019-01-27T02:54:39.150Z,80.94
2019-01-27T02:57:11.366Z,81.06
2019-01-27T02:59:43.965Z,81.24
2019-01-27T03:02:16.031Z,81.35
2019-01-27T03:04:48.069Z,81.31
2019-01-27T03:07:39.476Z,81.29
2019-01-27T03:10:13.715Z,81.33
2019-01-27T03:12:45.959Z,81.32
2019-01-27T03:15:18.874Z,81.36
2019-01-27T03:17:52.663Z,81.41
2019-01-27T03:20:24.680Z,81.38
2019-01-27T03:22:56.663Z,81.30
2019-01-27T03:25:28.730Z,81.30
2019-01-27T03:28:00.720Z,81.35
2019-01-27T03:30:32.896Z,81.34
2019-01-27T03:33:04.864Z,81.29
2019-01-27T03:35:38.506Z,81.37
2019-01-27T03:38:10.479Z,81.41
2019-01-27T03:40:42.555Z,81.46
2019-01-27T03:43:14.547Z,81.42
2019-01-27T03:45:46.658Z,81.40
2019-01-27T03:48:18.637Z,81.45
2019-01-27T03:50:50.671Z,81.47
2019-01-27T03:53:22.717Z,81.48
2019-01-27T03:55:54.712Z,81.50
2019-01-27T03:58:28.719Z,81.50
2019-01-27T04:01:00.760Z,81.54
2019-01-27T04:03:32.784Z,81.59
2019-01-27T04:06:04.816Z,81.61
2019-01-27T04:08:36.938Z,81.57
2019-01-27T04:11:09.011Z,81.52
2019-01-27T04:13:42.048Z,81.44
2019-01-27T04:16:14.032Z,81.39
2019-01-27T04:18:46.014Z,81.38
2019-01-27T04:21:17.994Z,81.39
2019-01-27T04:23:50.027Z,81.42
2019-01-27T04:26:22.049Z,81.33
2019-01-27T04:28:54.643Z,81.13
2019-01-27T04:31:27.721Z,81.00
2019-01-27T04:34:00.760Z,80.89
2019-01-27T04:36:32.764Z,80.79
2019-01-27T04:39:09.191Z,80.69
2019-01-27T04:41:41.240Z,80.57
2019-01-27T04:44:13.259Z,80.76
2019-01-27T04:46:45.220Z,80.82
2019-01-27T04:49:17.249Z,80.83
2019-01-27T04:51:50.275Z,80.94
2019-01-27T04:54:22.332Z,81.05
2019-01-27T04:56:54.295Z,81.04
2019-01-27T04:59:26.600Z,80.78
2019-01-27T05:01:58.602Z,80.59
2019-01-27T05:04:38.650Z,80.42
2019-01-27T05:07:10.722Z,80.16
2019-01-27T05:09:42.779Z,80.19
2019-01-27T05:12:14.954Z,80.02
2019-01-27T05:14:46.969Z,79.90
2019-01-27T05:17:18.993Z,79.98
2019-01-27T05:19:50.968Z,80.00
2019-01-27T05:22:23.107Z,80.15
2019-01-27T05:24:55.152Z,80.11
2019-01-27T05:27:27.165Z,80.11
2019-01-27T05:29:59.169Z,80.32
2019-01-27T05:32:31.200Z,80.49
2019-01-27T05:35:03.202Z,80.58
2019-01-27T05:37:35.287Z,80.49
2019-01-27T05:40:08.650Z,80.36
2019-01-27T05:42:40.780Z,80.23
2019-01-27T05:45:14.279Z,80.11
2019-01-27T05:47:46.278Z,79.87
2019-01-27T05:50:18.413Z,79.64
2019-01-27T05:52:51.771Z,79.47
2019-01-27T05:55:27.320Z,79.23
2019-01-27T05:57:59.347Z,79.22
2019-01-27T06:00:34.770Z,79.54
2019-01-27T06:03:06.744Z,79.80
2019-01-27T06:05:38.836Z,79.75
2019-01-27T06:08:12.908Z,79.49
2019-01-27T06:10:44.941Z,79.50
2019-01-27T06:13:17.033Z,79.51
2019-01-27T06:15:49.063Z,79.49
2019-01-27T06:18:21.229Z,79.63
2019-01-27T06:20:53.248Z,79.83
2019-01-27T06:23:25.273Z,80.15
2019-01-27T06:25:57.253Z,80.39
2019-01-27T06:28:29.253Z,80.47
2019-01-27T06:31:01.208Z,80.54
2019-01-27T06:33:40.931Z,80.71
2019-01-27T06:36:12.920Z,80.66
2019-01-27T06:38:44.949Z,80.65
2019-01-27T06:41:17.105Z,80.99
2019-01-27T06:43:49.158Z,80.77
2019-01-27T06:46:21.319Z,80.49
2019-01-27T06:48:53.762Z,80.41
2019-01-27T06:51:25.793Z,80.19
2019-01-27T06:53:57.873Z,80.22
2019-01-27T06:56:32.541Z,80.12
2019-01-27T06:59:12.366Z,80.14
2019-01-27T07:01:52.118Z,80.06
2019-01-27T07:04:36.339Z,80.12
2019-01-27T07:07:17.776Z,80.47
2019-01-27T07:10:04.540Z,80.63
2019-01-27T07:12:47.492Z,80.74
2019-01-27T07:15:41.327Z,80.71
2019-01-27T07:18:47.386Z,80.92
2019-01-27T07:21:33.611Z,81.01
2019-01-27T07:24:39.940Z,81.11
2019-01-27T07:27:48.151Z,80.99
2019-01-27T07:30:39.084Z,80.99
2019-01-27T07:33:28.683Z,81.01
2019-01-27T07:36:18.673Z,81.02
2019-01-27T07:39:18.719Z,80.90
2019-01-27T07:42:06.140Z,80.72
2019-01-27T07:44:56.000Z,80.51
2019-01-27T07:47:46.480Z,80.50
2019-01-27T07:50:36.712Z,80.45
2019-01-27T07:53:33.540Z,80.43
2019-01-27T07:56:23.810Z,80.31
2019-01-27T07:59:04.625Z,80.25
2019-01-27T08:02:11.016Z,80.09
2019-01-27T08:05:02.928Z,79.94
2019-01-27T08:07:54.253Z,79.84
2019-01-27T08:10:37.991Z,79.90
2019-01-27T08:13:41.169Z,79.79
2019-01-27T08:16:32.073Z,79.83
2019-01-27T08:19:32.003Z,79.81
2019-01-27T08:22:14.047Z,79.66
2019-01-27T08:25:07.943Z,79.58
2019-01-27T08:28:06.592Z,79.47
2019-01-27T08:30:56.168Z,79.29
2019-01-27T08:34:05.599Z,79.25
2019-01-27T08:36:56.824Z,79.19
2019-01-27T08:39:50.767Z,79.21
2019-01-27T08:42:44.893Z,78.95
2019-01-27T08:45:50.841Z,78.81
2019-01-27T08:48:22.970Z,78.73
2019-01-27T08:50:55.117Z,78.75
2019-01-27T08:53:27.022Z,78.69
2019-01-27T08:55:59.081Z,78.69
2019-01-27T08:58:31.195Z,78.61
2019-01-27T09:01:17.911Z,78.41
2019-01-27T09:03:59.292Z,78.34
2019-01-27T09:06:56.477Z,78.29
2019-01-27T09:09:50.849Z,78.28
2019-01-27T09:12:41.834Z,78.21
2019-01-27T09:15:51.019Z,78.25
2019-01-27T09:18:42.033Z,78.30
2019-01-27T09:21:36.044Z,78.16
2019-01-27T09:24:25.943Z,78.01
2019-01-27T09:27:11.992Z,78.02
2019-01-27T09:30:05.953Z,78.01
2019-01-27T09:33:08.565Z,77.98
2019-01-27T09:35:52.986Z,77.71
2019-01-27T09:38:45.051Z,78.03
2019-01-27T09:41:39.173Z,78.20
2019-01-27T09:44:39.301Z,78.15
2019-01-27T09:47:27.369Z,78.16
2019-01-27T09:50:30.826Z,78.06
2019-01-27T09:53:24.697Z,77.97
2019-01-27T09:56:16.956Z,77.97
2019-01-27T09:58:55.946Z,78.21
2019-01-27T10:01:53.360Z,78.19
2019-01-27T10:04:36.118Z,78.21
2019-01-27T10:07:25.622Z,78.20
2019-01-27T10:10:22.701Z,78.23
2019-01-27T10:13:21.133Z,78.14
2019-01-27T10:16:01.422Z,78.16
2019-01-27T10:18:55.225Z,77.96
2019-01-27T10:21:45.191Z,78.01
2019-01-27T10:24:41.458Z,78.01
2019-01-27T10:27:44.191Z,77.87
2019-01-27T10:30:40.189Z,77.97
2019-01-27T10:33:40.393Z,77.89
2019-01-27T10:36:40.735Z,78.05
2019-01-27T10:39:32.545Z,78.16
2019-01-27T10:42:22.718Z,78.11
2019-01-27T10:45:03.863Z,78.06
2019-01-27T10:47:55.209Z,77.75
2019-01-27T10:50:41.470Z,77.49
2019-01-27T10:53:50.733Z,77.51
2019-01-27T10:56:28.550Z,77.31
2019-01-27T10:59:25.672Z,77.19
2019-01-27T11:02:20.928Z,77.15
2019-01-27T11:05:19.118Z,76.77
2019-01-27T11:08:07.556Z,76.80
2019-01-27T11:10:57.357Z,76.78
2019-01-27T11:13:47.485Z,76.57
2019-01-27T11:16:43.278Z,76.50
2019-01-27T11:19:27.987Z,76.50
2019-01-27T11:22:15.226Z,76.63
2019-01-27T11:25:01.124Z,76.53
2019-01-27T11:28:08.713Z,76.59
2019-01-27T11:30:48.332Z,76.34
2019-01-27T11:33:45.623Z,76.36
2019-01-27T11:36:30.002Z,76.38
2019-01-27T11:39:40.194Z,76.33
2019-01-27T11:42:28.456Z,76.09
2019-01-27T11:45:07.173Z,76.18
2019-01-27T11:48:04.265Z,76.14
2019-01-27T11:50:46.921Z,76.12
2019-01-27T11:53:19.030Z,76.02
2019-01-27T11:55:51.037Z,75.88
2019-01-27T11:58:23.161Z,76.09
2019-01-27T12:00:58.900Z,75.70
2019-01-27T12:03:30.984Z,75.59
2019-01-27T12:06:05.585Z,75.45
2019-01-27T12:08:39.989Z,75.56
2019-01-27T12:11:12.450Z,75.55
2019-01-27T12:13:44.697Z,75.45
2019-01-27T12:16:17.945Z,75.55
2019-01-27T12:18:50.302Z,75.40
2019-01-27T12:21:22.609Z,75.33
2019-01-27T12:23:55.145Z,75.40
2019-01-27T12:26:27.118Z,75.30
2019-01-27T12:29:00.807Z,75.29
2019-01-27T12:31:32.859Z,75.29
2019-01-27T12:34:07.169Z,75.36
2019-01-27T12:36:39.549Z,75.46
2019-01-27T12:39:11.807Z,75.40
2019-01-27T12:41:44.819Z,75.31
2019-01-27T12:44:17.260Z,75.21
2019-01-27T12:46:49.308Z,75.07
2019-01-27T12:49:21.496Z,75.09
2019-01-27T12:51:54.194Z,75.16
2019-01-27T12:54:26.371Z,75.27
2019-01-27T12:56:58.506Z,75.30
2019-01-27T12:59:31.732Z,75.41
2019-01-27T13:02:05.487Z,75.19
2019-01-27T13:04:37.682Z,75.47
2019-01-27T13:07:10.177Z,75.44
2019-01-27T13:09:42.378Z,75.51
2019-01-27T13:12:14.509Z,75.56
2019-01-27T13:14:46.648Z,75.60
2019-01-27T13:17:19.000Z,75.58
2019-01-27T13:19:53.904Z,75.59
2019-01-27T13:22:25.269Z,75.45
2019-01-27T13:24:58.042Z,75.18
2019-01-27T13:27:40.284Z,74.89
2019-01-27T13:30:19.799Z,74.80
2019-01-27T13:32:52.318Z,75.06
2019-01-27T13:35:25.565Z,74.90
2019-01-27T13:37:57.675Z,74.85
2019-01-27T13:40:29.859Z,74.76
2019-01-27T13:43:07.539Z,74.85
2019-01-27T13:45:39.995Z,74.82
2019-01-27T13:48:12.133Z,74.85
2019-01-27T13:50:44.279Z,74.76
2019-01-27T13:53:16.419Z,74.76
2019-01-27T13:55:48.702Z,74.60
2019-01-27T13:58:20.724Z,74.91
2019-01-27T14:00:52.714Z,74.46
2019-01-27T14:03:28.139Z,74.54
2019-01-27T14:06:00.187Z,74.26
2019-01-27T14:08:32.321Z,74.20
2019-01-27T14:11:07.178Z,74.73
2019-01-27T14:13:41.965Z,74.23
2019-01-27T14:16:14.163Z,73.56
2019-01-27T14:18:46.756Z,73.36
2019-01-27T14:21:19.128Z,73.44
2019-01-27T14:23:51.703Z,73.73
2019-01-27T14:26:24.000Z,73.95
2019-01-27T14:28:56.140Z,74.29
2019-01-27T14:31:28.425Z,74.22
2019-01-27T14:34:00.651Z,74.51
2019-01-27T14:36:32.845Z,75.10
2019-01-27T14:39:08.040Z,75.49
2019-01-27T14:41:40.405Z,75.85
2019-01-27T14:44:12.701Z,76.10
2019-01-27T14:46:45.326Z,76.20
2019-01-27T14:49:18.340Z,76.14
2019-01-27T14:51:51.063Z,76.40
2019-01-27T14:54:23.458Z,76.40
2019-01-27T14:56:55.662Z,76.37
2019-01-27T14:59:27.836Z,76.28
2019-01-27T15:01:59.989Z,76.19
2019-01-27T15:04:56.845Z,75.99
2019-01-27T15:11:45.849Z,75.50
2019-01-27T15:14:18.266Z,75.77
2019-01-27T15:16:50.490Z,75.49
2019-01-27T15:19:22.669Z,75.42
2019-01-27T15:21:54.834Z,75.49
2019-01-27T15:25:17.626Z,75.44
2019-01-27T15:27:57.930Z,75.35
2019-01-27T15:30:31.698Z,75.40
2019-01-27T15:33:05.910Z,75.04
2019-01-27T15:35:41.778Z,75.22
2019-01-27T15:38:15.952Z,75.05
2019-01-27T15:40:53.955Z,75.01
2019-01-27T15:43:26.285Z,74.67
2019-01-27T15:45:58.422Z,74.38
2019-01-27T15:48:30.574Z,74.34
2019-01-27T15:51:02.675Z,74.00
2019-01-27T15:53:35.099Z,73.90
2019-01-27T15:56:07.373Z,73.74
2019-01-27T15:58:39.462Z,73.24
2019-01-27T16:01:11.987Z,73.17
2019-01-27T16:03:44.330Z,73.03
2019-01-27T16:06:16.413Z,73.23
2019-01-27T16:08:48.632Z,73.06
2019-01-27T16:11:21.180Z,73.17
2019-01-27T16:13:53.506Z,73.21
2019-01-27T16:16:25.672Z,73.46
2019-01-27T16:18:58.974Z,73.79
2019-01-27T16:21:31.328Z,73.99
2019-01-27T16:24:06.578Z,73.76
2019-01-27T16:26:38.813Z,74.03
2019-01-27T16:29:10.933Z,74.10
2019-01-27T16:32:01.274Z,74.14
2019-01-27T16:34:39.970Z,74.10
2019-01-27T16:37:26.170Z,74.35
2019-01-27T16:39:58.419Z,74.21
2019-01-27T16:42:33.046Z,74.29
2019-01-27T16:45:06.698Z,74.57
2019-01-27T16:47:39.192Z,74.36
2019-01-27T16:50:13.972Z,74.46
2019-01-27T16:52:48.318Z,74.37
2019-01-27T16:55:20.961Z,74.60
2019-01-27T16:57:53.091Z,74.55
2019-01-27T17:00:27.215Z,74.70
2019-01-27T17:02:59.461Z,74.71
2019-01-27T17:05:40.755Z,74.74
2019-01-27T17:08:13.101Z,74.64
2019-01-27T17:10:45.368Z,74.42
2019-01-27T17:13:17.436Z,74.13
2019-01-27T17:15:49.718Z,74.13
2019-01-27T17:18:21.983Z,73.86
2019-01-27T17:20:54.277Z,73.73
2019-01-27T17:23:26.652Z,73.65
2019-01-27T17:25:58.866Z,73.73
2019-01-27T17:28:30.995Z,73.26
2019-01-27T17:31:03.112Z,73.17
2019-01-27T17:33:35.297Z,73.08
2019-01-27T17:39:14.096Z,72.91
2019-01-27T17:41:46.363Z,72.84
2019-01-27T17:44:18.767Z,72.98
2019-01-27T17:46:51.071Z,73.04
2019-01-27T17:49:26.103Z,73.29
2019-01-27T17:52:01.463Z,73.49
2019-01-27T17:54:35.539Z,73.23
2019-01-27T17:57:20.378Z,73.08
2019-01-27T18:00:18.998Z,72.78
2019-01-27T18:03:10.243Z,72.83
2019-01-27T18:06:01.447Z,72.68
2019-01-27T18:09:32.262Z,72.60
2019-01-27T18:16:09.530Z,72.90
2019-01-27T18:18:42.258Z,72.54
2019-01-27T18:21:14.852Z,72.60
2019-01-27T18:23:48.744Z,72.29
2019-01-27T18:26:21.337Z,72.21
2019-01-27T18:28:55.417Z,71.83
2019-01-27T18:31:30.220Z,71.70
2019-01-27T18:34:18.854Z,71.48
2019-01-27T18:36:58.525Z,71.42
2019-01-27T18:40:00.796Z,71.38
2019-01-27T18:43:29.874Z,70.99
2019-01-27T18:48:10.486Z,71.49
2019-01-27T18:58:15.164Z,70.96
2019-01-27T19:01:32.078Z,71.24
2019-01-27T19:05:09.157Z,71.08
2019-01-27T19:11:49.439Z,71.03
2019-01-27T19:14:37.758Z,71.11
2019-01-27T19:17:42.450Z,70.80
2019-01-27T19:21:01.663Z,71.07
2019-01-27T19:24:03.388Z,71.30
2019-01-27T19:26:58.365Z,71.43
2019-01-27T19:29:58.661Z,71.32
2019-01-27T19:32:51.175Z,71.21
2019-01-27T19:40:47.190Z,71.42
2019-01-27T19:44:32.102Z,71.36
2019-01-27T19:47:38.183Z,71.22
2019-01-27T19:50:38.858Z,71.33
2019-01-27T19:53:28.699Z,71.01
2019-01-27T19:56:26.060Z,71.01
2019-01-27T20:02:40.439Z,71.08
2019-01-27T20:05:28.867Z,70.97
2019-01-27T20:08:16.826Z,70.90
2019-01-27T20:11:01.367Z,70.94
2019-01-27T20:17:40.234Z,70.95
2019-01-27T20:35:19.825Z,70.60
2019-01-27T20:38:08.318Z,70.42
2019-01-27T20:40:56.545Z,70.54
2019-01-27T20:43:53.716Z,70.22
2019-01-27T20:51:08.016Z,70.29
2019-01-27T20:57:46.740Z,70.39
2019-01-27T21:00:40.845Z,70.13
2019-01-27T21:03:32.128Z,70.08
2019-01-27T21:06:23.108Z,69.77
2019-01-27T21:13:29.117Z,69.78
2019-01-27T21:16:36.496Z,69.98
2019-01-27T21:19:45.478Z,69.69
2019-01-27T21:22:18.018Z,70.00
2019-01-27T21:24:50.350Z,69.47
2019-01-27T21:27:22.742Z,69.14
2019-01-27T21:29:56.155Z,69.26
2019-01-27T21:32:37.223Z,69.07
2019-01-27T21:35:10.991Z,68.92
2019-01-27T21:37:43.061Z,69.22
2019-01-27T21:40:17.991Z,69.31
2019-01-27T21:42:49.989Z,69.19
2019-01-27T21:45:26.401Z,69.17
2019-01-27T21:47:58.732Z,69.50
2019-01-27T21:50:36.089Z,69.18
2019-01-27T21:53:10.462Z,69.20
2019-01-27T21:55:42.649Z,69.25
2019-01-27T21:58:14.672Z,69.49
2019-01-27T22:00:46.779Z,69.16
2019-01-27T22:03:18.932Z,69.37
2019-01-27T22:05:51.661Z,69.28
2019-01-27T22:08:23.693Z,68.98
2019-01-27T22:10:55.900Z,69.18
2019-01-27T22:13:29.712Z,69.41
2019-01-27T22:16:02.544Z,69.04
2019-01-27T22:18:34.645Z,69.13
2019-01-27T22:21:06.874Z,69.11
2019-01-27T22:23:38.864Z,69.04
2019-01-27T22:26:11.131Z,69.12
2019-01-27T22:28:43.277Z,69.38
2019-01-27T22:31:15.327Z,69.40
2019-01-27T22:33:47.329Z,69.51
2019-01-27T22:36:19.490Z,69.51
2019-01-27T22:38:53.617Z,70.01
2019-01-27T22:41:25.609Z,69.89
2019-01-27T22:43:59.196Z,69.98
2019-01-27T22:46:31.181Z,69.90
2019-01-27T22:49:03.657Z,69.68
2019-01-27T22:51:35.704Z,69.65
2019-01-27T22:54:07.654Z,69.80
2019-01-27T22:56:39.735Z,69.62
2019-01-27T22:59:13.324Z,69.56
2019-01-27T23:01:45.430Z,69.40
2019-01-27T23:04:17.459Z,69.76
2019-01-27T23:06:49.542Z,69.45
2019-01-27T23:09:22.382Z,69.44
2019-01-27T23:11:54.403Z,69.40
2019-01-27T23:14:26.404Z,69.60
2019-01-27T23:16:58.481Z,69.32
2019-01-27T23:19:30.464Z,69.53
2019-01-27T23:22:02.536Z,69.48
2019-01-27T23:24:34.499Z,69.45
2019-01-27T23:27:08.713Z,69.39
2019-01-27T23:29:40.837Z,69.66
2019-01-27T23:32:12.898Z,69.64
2019-01-27T23:34:44.942Z,70.13
2019-01-27T23:37:16.991Z,69.80
2019-01-27T23:39:48.981Z,69.70
2019-01-27T23:42:21.003Z,69.80
2019-01-27T23:44:53.011Z,69.75
2019-01-27T23:47:24.976Z,69.96
2019-01-27T23:49:58.199Z,70.37
2019-01-27T23:52:30.527Z,70.05
2019-01-27T23:55:02.525Z,70.33
2019-01-27T23:57:34.628Z,70.20
